createdAt,value
2023-01-07T00:00:21.539Z,19.27
2023-01-07T00:01:29.179Z,19.52
2023-01-07T00:02:30.986Z,20.52
2023-01-07T00:03:33.655Z,16.95
2023-01-07T00:04:35.438Z,22.45
2023-01-07T00:05:37.489Z,22.10
2023-01-07T00:06:40.581Z,15.65
2023-01-07T00:07:42.280Z,22.15
2023-01-07T00:08:45.781Z,15.52
2023-01-07T00:09:47.516Z,18.52
2023-01-07T00:10:49.286Z,24.48
2023-01-07T00:11:51.117Z,18.27
2023-01-07T00:12:53.862Z,17.27
2023-01-07T00:13:57.184Z,19.92
2023-01-07T00:14:58.967Z,16.90
2023-01-07T00:16:02.766Z,18.55
2023-01-07T00:17:04.526Z,17.77
2023-01-07T00:18:06.247Z,15.63
2023-01-07T00:19:12.036Z,22.92
2023-01-07T00:20:13.994Z,19.15
2023-01-07T00:21:18.401Z,17.30
2023-01-07T00:22:20.226Z,19.85
2023-01-07T00:23:24.419Z,18.00
2023-01-07T00:24:26.166Z,20.83
2023-01-07T00:25:29.168Z,20.27
2023-01-07T00:26:33.138Z,24.23
2023-01-07T00:27:34.843Z,21.70
2023-01-07T00:28:39.075Z,17.75
2023-01-07T00:29:40.832Z,16.60
2023-01-07T00:30:42.878Z,23.00
2023-01-07T00:31:44.612Z,19.23
2023-01-07T00:33:06.218Z,22.73
2023-01-07T00:34:09.304Z,23.20
2023-01-07T00:35:23.157Z,19.63
2023-01-07T00:36:31.490Z,18.48
2023-01-07T00:37:51.153Z,16.30
2023-01-07T00:38:57.744Z,16.27
2023-01-07T00:39:59.463Z,17.70
2023-01-07T00:41:01.618Z,18.20
2023-01-07T00:42:22.113Z,18.77
2023-01-07T00:43:23.869Z,23.38
2023-01-07T00:44:25.595Z,21.85
2023-01-07T00:45:29.971Z,19.98
2023-01-07T00:46:32.335Z,19.17
2023-01-07T00:47:34.253Z,22.33
2023-01-07T00:48:35.966Z,16.33
2023-01-07T00:49:37.894Z,25.83
2023-01-07T00:50:40.427Z,20.63
2023-01-07T00:51:42.307Z,19.02
2023-01-07T00:52:44.174Z,16.90
2023-01-07T00:53:46.262Z,14.80
2023-01-07T00:54:48.017Z,19.02
2023-01-07T00:55:50.955Z,15.63
2023-01-07T00:56:52.888Z,17.17
2023-01-07T00:57:55.271Z,19.42
2023-01-07T00:58:57.013Z,16.08
2023-01-07T00:59:58.734Z,17.63
2023-01-07T01:01:02.117Z,15.40
2023-01-07T01:02:04.226Z,15.35
2023-01-07T01:03:06.010Z,16.58
2023-01-07T01:04:08.406Z,16.63
2023-01-07T01:05:10.925Z,18.80
2023-01-07T01:06:15.298Z,18.58
2023-01-07T01:07:17.053Z,15.75
2023-01-07T01:08:20.329Z,21.48
2023-01-07T01:09:22.447Z,15.90
2023-01-07T01:10:24.456Z,16.00
2023-01-07T01:11:26.561Z,14.98
2023-01-07T01:12:28.960Z,16.08
2023-01-07T01:13:30.795Z,16.70
2023-01-07T01:14:32.563Z,13.85
2023-01-07T01:15:34.298Z,18.98
2023-01-07T01:16:36.233Z,14.00
2023-01-07T01:17:38.451Z,16.70
2023-01-07T01:18:40.477Z,15.73
2023-01-07T01:19:42.192Z,16.17
2023-01-07T01:20:43.882Z,16.85
2023-01-07T01:21:45.619Z,16.25
2023-01-07T01:22:48.182Z,15.80
2023-01-07T01:23:49.993Z,15.15
2023-01-07T01:24:52.297Z,19.13
2023-01-07T01:26:02.930Z,14.85
2023-01-07T01:27:04.715Z,15.27
2023-01-07T01:28:06.500Z,14.55
2023-01-07T01:29:08.402Z,16.95
2023-01-07T01:30:10.777Z,16.67
2023-01-07T01:31:13.319Z,19.38
2023-01-07T01:32:15.515Z,15.65
2023-01-07T01:33:17.314Z,17.42
2023-01-07T01:34:19.452Z,20.00
2023-01-07T01:35:21.315Z,12.93
2023-01-07T01:36:23.439Z,14.80
2023-01-07T01:37:25.333Z,15.02
2023-01-07T01:38:27.239Z,18.50
2023-01-07T01:39:29.004Z,14.60
2023-01-07T01:40:30.990Z,17.73
2023-01-07T01:41:33.741Z,20.95
2023-01-07T01:42:35.505Z,19.67
2023-01-07T01:43:40.360Z,16.35
2023-01-07T01:45:00.049Z,13.10
2023-01-07T01:46:25.072Z,18.58
2023-01-07T01:47:50.340Z,13.52
2023-01-07T01:49:04.011Z,17.60
2023-01-07T01:50:29.089Z,19.70
2023-01-07T01:51:36.167Z,13.57
2023-01-07T01:52:50.339Z,19.40
2023-01-07T01:53:53.888Z,14.48
2023-01-07T01:55:00.089Z,22.67
2023-01-07T01:56:09.276Z,17.52
2023-01-07T01:57:11.315Z,18.63
2023-01-07T01:58:36.207Z,16.05
2023-01-07T01:59:44.083Z,16.27
2023-01-07T02:00:45.926Z,15.05
2023-01-07T02:01:47.931Z,18.23
2023-01-07T02:02:55.567Z,13.95
2023-01-07T02:03:57.713Z,17.30
2023-01-07T02:04:59.781Z,14.73
2023-01-07T02:06:02.391Z,18.27
2023-01-07T02:07:09.487Z,16.85
2023-01-07T02:08:11.233Z,15.35
2023-01-07T02:09:13.508Z,16.92
2023-01-07T02:10:22.018Z,15.57
2023-01-07T02:11:37.985Z,15.65
2023-01-07T02:12:54.496Z,18.67
2023-01-07T02:14:20.371Z,13.77
2023-01-07T02:15:26.952Z,13.27
2023-01-07T02:16:43.125Z,17.50
2023-01-07T02:18:01.835Z,15.35
2023-01-07T02:19:15.580Z,16.45
2023-01-07T02:20:36.654Z,17.25
2023-01-07T02:22:00.328Z,14.18
2023-01-07T02:23:10.708Z,15.98
2023-01-07T02:24:49.418Z,14.93
2023-01-07T02:25:51.142Z,11.85
2023-01-07T02:27:14.592Z,14.65
2023-01-07T02:29:08.634Z,18.00
2023-01-07T02:30:32.403Z,11.68
2023-01-07T02:33:10.902Z,14.93
2023-01-07T02:34:12.733Z,13.93
2023-01-07T02:35:14.563Z,20.55
2023-01-07T02:36:43.604Z,13.60
2023-01-07T02:38:13.184Z,15.32
2023-01-07T02:39:45.529Z,17.63
2023-01-07T02:41:01.498Z,19.63
2023-01-07T02:42:07.344Z,14.32
2023-01-07T02:43:33.835Z,15.05
2023-01-07T02:45:04.281Z,13.75
2023-01-07T02:46:30.788Z,15.52
2023-01-07T02:47:32.702Z,15.02
2023-01-07T02:48:35.423Z,21.23
2023-01-07T02:49:37.276Z,14.93
2023-01-07T02:50:39.059Z,10.35
2023-01-07T02:51:42.282Z,14.00
2023-01-07T02:52:44.356Z,16.08
2023-01-07T02:53:48.565Z,15.52
2023-01-07T02:55:04.329Z,16.67
2023-01-07T02:56:38.125Z,13.27
2023-01-07T02:57:55.177Z,12.18
2023-01-07T02:59:11.673Z,12.95
2023-01-07T03:00:39.830Z,17.98
2023-01-07T03:02:10.418Z,13.90
2023-01-07T03:03:21.996Z,12.48
2023-01-07T03:04:53.570Z,13.18
2023-01-07T03:06:13.428Z,21.90
2023-01-07T03:07:59.014Z,10.27
2023-01-07T03:09:16.134Z,21.17
2023-01-07T03:10:32.586Z,14.75
2023-01-07T03:11:45.825Z,15.70
2023-01-07T03:13:00.412Z,12.07
2023-01-07T03:14:25.009Z,11.57
2023-01-07T03:15:40.645Z,13.88
2023-01-07T03:16:45.295Z,13.40
2023-01-07T03:18:08.327Z,16.80
2023-01-07T03:19:17.814Z,10.30
2023-01-07T03:20:23.548Z,12.43
2023-01-07T03:21:27.949Z,16.80
2023-01-07T03:22:33.184Z,15.73
2023-01-07T03:23:39.505Z,13.90
2023-01-07T03:24:42.367Z,14.48
2023-01-07T03:25:47.698Z,16.58
2023-01-07T03:26:52.730Z,16.85
2023-01-07T03:27:55.991Z,12.00
2023-01-07T03:29:00.970Z,16.20
2023-01-07T03:30:09.099Z,20.02
2023-01-07T03:31:14.206Z,18.17
2023-01-07T03:32:19.051Z,14.90
2023-01-07T03:33:35.760Z,15.13
2023-01-07T03:34:39.419Z,14.18
2023-01-07T03:35:43.986Z,14.60
2023-01-07T03:36:53.260Z,17.10
2023-01-07T03:37:56.124Z,14.32
2023-01-07T03:38:59.141Z,17.75
2023-01-07T03:40:03.260Z,14.80
2023-01-07T03:41:05.192Z,13.32
2023-01-07T03:42:27.170Z,15.70
2023-01-07T03:43:29.111Z,16.13
2023-01-07T03:44:30.967Z,13.82
2023-01-07T03:45:32.900Z,15.07
2023-01-07T03:46:37.164Z,12.50
2023-01-07T03:47:41.292Z,15.45
2023-01-07T03:48:43.186Z,11.10
2023-01-07T03:49:45.333Z,17.77
2023-01-07T03:50:47.207Z,18.15
2023-01-07T03:51:49.547Z,13.13
2023-01-07T03:52:52.022Z,9.98
2023-01-07T03:53:53.771Z,16.73
2023-01-07T03:54:55.670Z,11.88
2023-01-07T03:55:57.451Z,14.32
2023-01-07T03:56:59.407Z,13.23
2023-01-07T03:58:01.614Z,14.90
2023-01-07T03:59:03.493Z,14.00
2023-01-07T04:00:07.859Z,13.95
2023-01-07T04:01:09.800Z,13.77
2023-01-07T04:02:11.933Z,15.98
2023-01-07T04:03:14.037Z,19.30
2023-01-07T04:04:16.018Z,14.75
2023-01-07T04:05:18.023Z,17.95
2023-01-07T04:06:20.064Z,13.90
2023-01-07T04:07:22.029Z,14.98
2023-01-07T04:08:23.824Z,11.95
2023-01-07T04:09:25.734Z,16.05
2023-01-07T04:10:27.476Z,14.07
2023-01-07T04:11:29.318Z,17.63
2023-01-07T04:12:31.297Z,14.27
2023-01-07T04:13:33.223Z,14.30
2023-01-07T04:14:35.213Z,16.13
2023-01-07T04:15:37.037Z,19.35
2023-01-07T04:16:39.183Z,17.73
2023-01-07T04:17:41.079Z,13.32
2023-01-07T04:18:43.061Z,17.85
2023-01-07T04:19:45.491Z,13.30
2023-01-07T04:20:48.252Z,14.60
2023-01-07T04:21:50.426Z,14.48
2023-01-07T04:22:52.547Z,14.57
2023-01-07T04:23:54.636Z,16.13
2023-01-07T04:24:56.523Z,14.75
2023-01-07T04:25:58.391Z,16.48
2023-01-07T04:27:00.274Z,15.82
2023-01-07T04:28:02.247Z,11.60
2023-01-07T04:29:04.427Z,11.77
2023-01-07T04:30:06.774Z,16.40
2023-01-07T04:31:08.758Z,12.73
2023-01-07T04:32:11.449Z,15.25
2023-01-07T04:33:13.314Z,15.73
2023-01-07T04:34:15.107Z,11.68
2023-01-07T04:35:16.953Z,11.85
2023-01-07T04:36:18.841Z,13.32
2023-01-07T04:37:20.784Z,14.18
2023-01-07T04:38:22.512Z,13.57
2023-01-07T04:39:24.537Z,14.77
2023-01-07T04:40:26.846Z,14.80
2023-01-07T04:41:28.614Z,12.98
2023-01-07T04:42:30.385Z,17.60
2023-01-07T04:43:32.361Z,14.13
2023-01-07T04:44:34.128Z,14.13
2023-01-07T04:45:35.864Z,16.85
2023-01-07T04:46:37.748Z,14.15
2023-01-07T04:47:39.625Z,15.75
2023-01-07T04:48:41.397Z,16.08
2023-01-07T04:49:43.310Z,12.93
2023-01-07T04:50:46.597Z,13.68
2023-01-07T04:51:48.554Z,18.42
2023-01-07T04:52:50.610Z,15.55
2023-01-07T04:53:52.909Z,13.32
2023-01-07T04:54:54.752Z,20.80
2023-01-07T04:55:56.676Z,25.75
2023-01-07T04:56:58.556Z,13.32
2023-01-07T04:58:00.499Z,13.90
2023-01-07T04:59:02.428Z,13.02
2023-01-07T05:00:05.458Z,16.52
2023-01-07T05:01:07.323Z,16.70
2023-01-07T05:02:09.292Z,16.65
2023-01-07T05:03:11.430Z,15.48
2023-01-07T05:04:13.378Z,13.27
2023-01-07T05:05:15.396Z,15.40
2023-01-07T05:06:17.207Z,11.93
2023-01-07T05:07:19.345Z,15.57
2023-01-07T05:08:21.576Z,11.32
2023-01-07T05:09:23.420Z,17.13
2023-01-07T05:10:25.340Z,13.40
2023-01-07T05:11:27.040Z,17.27
2023-01-07T05:12:29.140Z,16.42
2023-01-07T05:13:31.824Z,13.27
2023-01-07T05:14:33.806Z,16.67
2023-01-07T05:15:35.628Z,12.77
2023-01-07T05:16:37.588Z,21.65
2023-01-07T05:17:39.622Z,17.02
2023-01-07T05:18:41.384Z,20.23
2023-01-07T05:19:43.127Z,18.20
2023-01-07T05:20:47.770Z,11.57
2023-01-07T05:21:49.591Z,16.83
2023-01-07T05:22:51.457Z,17.92
2023-01-07T05:23:53.350Z,16.05
2023-01-07T05:24:55.060Z,15.40
2023-01-07T05:25:56.784Z,13.38
2023-01-07T05:26:58.514Z,13.90
2023-01-07T05:28:00.651Z,18.90
2023-01-07T05:29:02.533Z,15.98
2023-01-07T05:30:04.878Z,16.17
2023-01-07T05:31:07.044Z,13.93
2023-01-07T05:32:08.846Z,15.45
2023-01-07T05:33:11.731Z,16.50
2023-01-07T05:34:13.574Z,14.63
2023-01-07T05:35:15.571Z,17.65
2023-01-07T05:36:17.495Z,17.63
2023-01-07T05:37:19.231Z,16.67
2023-01-07T05:38:21.104Z,14.23
2023-01-07T05:39:22.941Z,14.75
2023-01-07T05:40:24.659Z,14.88
2023-01-07T05:41:26.882Z,17.17
2023-01-07T05:42:28.615Z,16.38
2023-01-07T05:43:30.692Z,14.13
2023-01-07T05:44:32.671Z,14.52
2023-01-07T05:45:34.425Z,16.73
2023-01-07T05:46:36.549Z,12.65
2023-01-07T05:47:38.299Z,14.63
2023-01-07T05:48:40.178Z,18.15
2023-01-07T05:49:42.092Z,15.77
2023-01-07T05:50:44.440Z,21.50
2023-01-07T05:51:46.390Z,14.18
2023-01-07T05:52:48.303Z,12.52
2023-01-07T05:53:50.108Z,15.63
2023-01-07T05:54:51.994Z,13.93
2023-01-07T05:55:58.191Z,12.52
2023-01-07T05:56:59.932Z,19.23
2023-01-07T05:58:01.638Z,13.70
2023-01-07T05:59:03.822Z,16.70
2023-01-07T06:00:06.518Z,17.67
2023-01-07T06:01:08.279Z,12.98
2023-01-07T06:02:10.446Z,17.58
2023-01-07T06:03:12.393Z,16.90
2023-01-07T06:04:14.246Z,18.55
2023-01-07T06:05:16.209Z,13.98
2023-01-07T06:06:18.267Z,20.75
2023-01-07T06:07:20.027Z,17.05
2023-01-07T06:08:22.072Z,16.23
2023-01-07T06:09:23.931Z,15.63
2023-01-07T06:10:25.657Z,13.15
2023-01-07T06:11:27.540Z,15.45
2023-01-07T06:12:29.494Z,15.02
2023-01-07T06:13:32.041Z,14.15
2023-01-07T06:14:33.902Z,21.95
2023-01-07T06:15:36.042Z,23.00
2023-01-07T06:16:37.861Z,23.08
2023-01-07T06:17:39.570Z,27.90
2023-01-07T06:18:41.815Z,17.10
2023-01-07T06:19:43.693Z,21.65
2023-01-07T06:20:45.429Z,19.05
2023-01-07T06:21:47.139Z,13.38
2023-01-07T06:22:48.988Z,17.92
2023-01-07T06:23:50.772Z,17.13
2023-01-07T06:24:52.532Z,21.45
2023-01-07T06:25:54.584Z,13.68
2023-01-07T06:26:56.495Z,17.02
2023-01-07T06:27:58.622Z,22.10
2023-01-07T06:29:00.766Z,17.27
2023-01-07T06:30:04.297Z,16.92
2023-01-07T06:31:06.171Z,16.30
2023-01-07T06:32:08.872Z,18.90
2023-01-07T06:33:10.791Z,16.23
2023-01-07T06:34:12.529Z,14.60
2023-01-07T06:35:14.345Z,19.30
2023-01-07T06:36:16.127Z,18.52
2023-01-07T06:37:18.277Z,13.57
2023-01-07T06:38:20.010Z,19.35
2023-01-07T06:39:21.738Z,18.40
2023-01-07T06:40:24.616Z,13.05
2023-01-07T06:41:26.550Z,22.00
2023-01-07T06:42:28.491Z,15.43
2023-01-07T06:43:31.382Z,18.33
2023-01-07T06:44:33.330Z,13.65
2023-01-07T06:45:35.095Z,17.42
2023-01-07T06:46:37.029Z,16.25
2023-01-07T06:47:39.176Z,14.60
2023-01-07T06:48:41.046Z,20.50
2023-01-07T06:49:42.924Z,18.38
2023-01-07T06:50:45.490Z,17.30
2023-01-07T06:51:47.420Z,21.83
2023-01-07T06:52:49.344Z,19.17
2023-01-07T06:53:51.288Z,19.95
2023-01-07T06:54:53.068Z,21.73
2023-01-07T06:55:54.791Z,20.17
2023-01-07T06:56:56.534Z,17.23
2023-01-07T06:57:58.485Z,20.13
2023-01-07T06:59:00.438Z,24.17
2023-01-07T07:00:02.397Z,20.65
2023-01-07T07:01:08.676Z,16.05
2023-01-07T07:02:19.505Z,14.07
2023-01-07T07:03:21.712Z,17.98
2023-01-07T07:04:23.455Z,17.77
2023-01-07T07:05:29.555Z,15.70
2023-01-07T07:06:31.314Z,15.43
2023-01-07T07:07:33.575Z,16.70
2023-01-07T07:08:35.708Z,18.05
2023-01-07T07:09:37.597Z,17.08
2023-01-07T07:10:39.620Z,17.42
2023-01-07T07:11:41.499Z,18.48
2023-01-07T07:12:43.416Z,20.77
2023-01-07T07:13:45.348Z,20.58
2023-01-07T07:14:47.242Z,19.17
2023-01-07T07:15:49.820Z,22.23
2023-01-07T07:16:51.823Z,24.70
2023-01-07T07:17:53.786Z,20.77
2023-01-07T07:18:55.827Z,19.23
2023-01-07T07:19:57.718Z,21.42
2023-01-07T07:20:59.888Z,20.60
2023-01-07T07:22:03.911Z,22.55
2023-01-07T07:23:06.456Z,20.60
2023-01-07T07:24:08.394Z,17.08
2023-01-07T07:25:10.601Z,19.67
2023-01-07T07:26:12.536Z,19.50
2023-01-07T07:27:14.324Z,17.85
2023-01-07T07:28:17.154Z,19.35
2023-01-07T07:29:20.537Z,16.25
2023-01-07T07:30:23.457Z,23.20
2023-01-07T07:31:45.281Z,20.58
2023-01-07T07:32:47.142Z,23.60
2023-01-07T07:33:48.909Z,25.73
2023-01-07T07:34:50.743Z,18.33
2023-01-07T07:35:53.300Z,17.48
2023-01-07T07:36:55.213Z,16.48
2023-01-07T07:37:57.379Z,19.85
2023-01-07T07:38:59.119Z,20.33
2023-01-07T07:40:00.848Z,19.92
2023-01-07T07:41:02.769Z,19.58
2023-01-07T07:42:05.650Z,22.85
2023-01-07T07:43:11.424Z,18.70
2023-01-07T07:44:14.571Z,14.77
2023-01-07T07:45:16.412Z,16.40
2023-01-07T07:46:19.057Z,18.05
2023-01-07T07:47:20.994Z,21.98
2023-01-07T07:48:22.781Z,22.52
2023-01-07T07:49:24.665Z,21.42
2023-01-07T07:50:26.835Z,23.40
2023-01-07T07:51:28.745Z,23.00
2023-01-07T07:52:30.470Z,19.52
2023-01-07T07:53:32.652Z,20.10
2023-01-07T07:54:35.180Z,21.10
2023-01-07T07:55:38.651Z,36.33
2023-01-07T07:56:40.380Z,18.77
2023-01-07T07:57:42.125Z,21.73
2023-01-07T07:58:44.112Z,21.88
2023-01-07T07:59:46.064Z,27.90
2023-01-07T08:00:47.891Z,22.85
2023-01-07T08:01:50.430Z,19.98
2023-01-07T08:02:52.249Z,26.05
2023-01-07T08:03:53.962Z,25.27
2023-01-07T08:04:55.704Z,25.42
2023-01-07T08:05:57.854Z,31.25
2023-01-07T08:07:00.695Z,22.77
2023-01-07T08:08:02.689Z,20.73
2023-01-07T08:09:04.590Z,15.57
2023-01-07T08:10:07.083Z,19.20
2023-01-07T08:11:09.572Z,25.90
2023-01-07T08:12:11.452Z,25.20
2023-01-07T08:13:13.177Z,23.92
2023-01-07T08:14:15.079Z,22.95
2023-01-07T08:15:17.682Z,24.88
2023-01-07T08:16:19.704Z,19.60
2023-01-07T08:17:21.845Z,23.85
2023-01-07T08:18:23.938Z,25.88
2023-01-07T08:19:25.698Z,30.48
2023-01-07T08:20:28.627Z,18.75
2023-01-07T08:21:30.365Z,19.80
2023-01-07T08:22:33.341Z,20.08
2023-01-07T08:23:35.101Z,18.50
2023-01-07T08:24:37.000Z,23.02
2023-01-07T08:25:38.879Z,22.95
2023-01-07T08:26:40.713Z,25.40
2023-01-07T08:27:42.661Z,19.98
2023-01-07T08:28:46.543Z,25.58
2023-01-07T08:29:48.628Z,21.80
2023-01-07T08:30:50.512Z,19.77
2023-01-07T08:31:52.437Z,22.27
2023-01-07T08:32:54.725Z,22.33
2023-01-07T08:33:56.459Z,21.67
2023-01-07T08:34:58.336Z,24.80
2023-01-07T08:36:00.110Z,21.35
2023-01-07T08:37:01.946Z,25.45
2023-01-07T08:38:06.177Z,19.77
2023-01-07T08:39:07.927Z,19.10
2023-01-07T08:40:10.916Z,26.65
2023-01-07T08:41:12.832Z,33.20
2023-01-07T08:42:14.569Z,27.08
2023-01-07T08:43:16.313Z,24.50
2023-01-07T08:44:18.075Z,27.30
2023-01-07T08:45:19.780Z,24.35
2023-01-07T08:46:21.954Z,22.70
2023-01-07T08:47:26.112Z,19.48
2023-01-07T08:48:28.166Z,24.70
2023-01-07T08:49:29.912Z,25.15
2023-01-07T08:50:33.803Z,22.80
2023-01-07T08:51:35.605Z,24.33
2023-01-07T08:52:37.651Z,27.85
2023-01-07T08:53:39.389Z,29.38
2023-01-07T08:54:41.361Z,31.98
2023-01-07T08:55:43.082Z,22.75
2023-01-07T08:56:44.877Z,44.13
2023-01-07T08:57:48.229Z,31.95
2023-01-07T08:58:50.097Z,29.65
2023-01-07T08:59:51.944Z,21.55
2023-01-07T09:00:53.919Z,42.92
2023-01-07T09:01:55.830Z,31.98
2023-01-07T09:02:57.689Z,24.48
2023-01-07T09:03:59.402Z,17.40
2023-01-07T09:05:01.290Z,26.23
2023-01-07T09:06:03.246Z,20.13
2023-01-07T09:07:05.345Z,20.15
2023-01-07T09:08:07.062Z,23.60
2023-01-07T09:09:08.902Z,24.15
2023-01-07T09:10:11.361Z,19.98
2023-01-07T09:11:13.256Z,24.58
2023-01-07T09:12:15.093Z,25.10
2023-01-07T09:13:16.985Z,23.77
2023-01-07T09:14:18.714Z,25.90
2023-01-07T09:15:20.632Z,20.83
2023-01-07T09:16:22.538Z,19.52
2023-01-07T09:17:24.445Z,21.10
2023-01-07T09:18:26.188Z,18.05
2023-01-07T09:19:28.549Z,19.67
2023-01-07T09:20:30.710Z,19.88
2023-01-07T09:21:32.453Z,20.90
2023-01-07T09:22:36.289Z,18.23
2023-01-07T09:23:38.100Z,13.57
2023-01-07T09:24:39.974Z,15.05
2023-01-07T09:25:42.275Z,18.10
2023-01-07T09:26:44.251Z,19.35
2023-01-07T09:27:46.063Z,17.02
2023-01-07T09:28:48.159Z,16.08
2023-01-07T09:29:50.113Z,19.98
2023-01-07T09:30:52.024Z,22.40
2023-01-07T09:31:54.065Z,23.38
2023-01-07T09:32:56.279Z,19.20
2023-01-07T09:33:58.208Z,21.30
2023-01-07T09:35:00.093Z,18.48
2023-01-07T09:36:01.921Z,27.67
2023-01-07T09:37:03.856Z,17.48
2023-01-07T09:38:06.225Z,15.75
2023-01-07T09:39:10.051Z,21.00
2023-01-07T09:40:39.553Z,17.83
2023-01-07T09:42:00.152Z,18.23
2023-01-07T09:43:18.178Z,16.08
2023-01-07T09:44:45.818Z,16.10
2023-01-07T09:45:52.500Z,25.55
2023-01-07T09:46:56.351Z,23.52
2023-01-07T09:48:01.459Z,18.50
2023-01-07T09:49:04.555Z,17.13
2023-01-07T09:50:19.419Z,18.35
2023-01-07T09:51:27.871Z,19.58
2023-01-07T09:52:40.402Z,27.63
2023-01-07T09:54:03.087Z,36.92
2023-01-07T09:55:30.162Z,25.50
2023-01-07T09:56:36.364Z,20.88
2023-01-07T09:57:38.239Z,26.95
2023-01-07T09:58:46.571Z,28.70
2023-01-07T09:59:48.329Z,23.95
2023-01-07T10:00:55.824Z,20.15
2023-01-07T10:02:05.024Z,26.77
2023-01-07T10:03:35.765Z,35.78
2023-01-07T10:05:01.833Z,31.50
2023-01-07T10:06:15.527Z,18.33
2023-01-07T10:07:42.196Z,19.08
2023-01-07T10:08:53.186Z,20.98
2023-01-07T10:11:11.208Z,19.25
2023-01-07T10:12:54.783Z,57.55
2023-01-07T10:14:25.674Z,47.55
2023-01-07T10:15:44.013Z,53.85
2023-01-07T10:17:22.135Z,60.67
2023-01-07T10:18:43.130Z,63.85
2023-01-07T10:19:49.638Z,44.70
2023-01-07T10:20:59.948Z,78.43
2023-01-07T10:22:11.306Z,35.05
2023-01-07T10:23:36.258Z,49.00
2023-01-07T10:24:43.550Z,53.15
2023-01-07T10:25:54.684Z,30.75
2023-01-07T10:28:06.288Z,34.13
2023-01-07T10:29:26.769Z,36.10
2023-01-07T10:30:31.268Z,35.17
2023-01-07T10:31:33.834Z,25.15
2023-01-07T10:32:38.958Z,31.38
2023-01-07T10:33:41.031Z,34.90
2023-01-07T10:34:56.079Z,25.90
2023-01-07T10:36:24.034Z,29.30
2023-01-07T10:37:35.690Z,27.25
2023-01-07T10:38:42.260Z,34.00
2023-01-07T10:40:03.547Z,31.63
2023-01-07T10:41:16.747Z,19.13
2023-01-07T10:42:40.982Z,19.60
2023-01-07T10:43:56.876Z,21.55
2023-01-07T10:45:42.421Z,20.00
2023-01-07T10:47:13.532Z,22.13
2023-01-07T10:48:46.375Z,22.10
2023-01-07T10:50:05.010Z,30.33
2023-01-07T10:51:12.874Z,23.67
2023-01-07T10:52:36.334Z,19.80
2023-01-07T10:53:40.804Z,17.15
2023-01-07T10:55:06.608Z,17.92
2023-01-07T10:56:32.172Z,24.48
2023-01-07T10:57:39.369Z,26.83
2023-01-07T10:58:43.871Z,19.15
2023-01-07T10:59:53.727Z,25.48
2023-01-07T11:00:55.819Z,24.45
2023-01-07T11:02:17.565Z,28.02
2023-01-07T11:03:24.800Z,28.92
2023-01-07T11:04:26.890Z,25.55
2023-01-07T11:05:37.836Z,23.98
2023-01-07T11:07:06.954Z,22.85
2023-01-07T11:08:20.928Z,34.10
2023-01-07T11:09:32.374Z,29.77
2023-01-07T11:10:37.968Z,30.52
2023-01-07T11:11:40.800Z,37.45
2023-01-07T11:12:50.334Z,20.25
2023-01-07T11:14:00.023Z,22.88
2023-01-07T11:15:07.922Z,17.48
2023-01-07T11:16:19.981Z,22.05
2023-01-07T11:17:35.935Z,27.77
2023-01-07T11:18:51.549Z,24.48
2023-01-07T11:19:53.363Z,25.02
2023-01-07T11:20:59.430Z,25.00
2023-01-07T11:22:01.307Z,22.50
2023-01-07T11:23:37.981Z,21.55
2023-01-07T11:24:40.183Z,24.00
2023-01-07T11:25:42.282Z,20.40
2023-01-07T11:26:44.412Z,19.02
2023-01-07T11:27:46.170Z,21.40
2023-01-07T11:29:02.541Z,23.40
2023-01-07T11:30:07.674Z,25.95
2023-01-07T11:31:09.616Z,20.63
2023-01-07T11:32:26.148Z,24.13
2023-01-07T11:34:01.537Z,19.00
2023-01-07T11:35:23.154Z,16.30
2023-01-07T11:36:42.428Z,22.38
2023-01-07T11:37:47.042Z,22.38
2023-01-07T11:38:49.009Z,18.77
2023-01-07T11:39:59.539Z,18.38
2023-01-07T11:41:01.677Z,17.45
2023-01-07T11:42:34.987Z,18.30
2023-01-07T11:43:40.741Z,18.98
2023-01-07T11:44:42.867Z,22.42
2023-01-07T11:46:21.060Z,20.92
2023-01-07T11:47:18.366Z,21.30
2023-01-07T11:48:29.204Z,20.20
2023-01-07T11:49:31.442Z,18.27
2023-01-07T11:50:55.114Z,20.08
2023-01-07T11:51:58.607Z,18.27
2023-01-07T11:53:07.217Z,19.00
2023-01-07T11:54:23.548Z,20.50
2023-01-07T11:55:25.630Z,25.63
2023-01-07T11:56:30.784Z,25.65
2023-01-07T11:57:32.713Z,18.35
2023-01-07T11:58:44.037Z,22.17
2023-01-07T11:59:45.806Z,19.23
2023-01-07T12:01:02.364Z,27.80
2023-01-07T12:02:24.745Z,23.67
2023-01-07T12:03:26.531Z,19.15
2023-01-07T12:04:35.871Z,20.73
2023-01-07T12:05:39.124Z,19.73
2023-01-07T12:06:44.033Z,16.92
2023-01-07T12:07:50.474Z,19.10
2023-01-07T12:09:04.056Z,20.17
2023-01-07T12:10:26.954Z,25.30
2023-01-07T12:11:38.376Z,21.42
2023-01-07T12:12:44.112Z,21.63
2023-01-07T12:13:55.426Z,25.00
2023-01-07T12:14:59.889Z,16.98
2023-01-07T12:16:07.447Z,22.98
2023-01-07T12:17:12.377Z,21.83
2023-01-07T12:18:51.366Z,16.75
2023-01-07T12:20:05.386Z,18.35
2023-01-07T12:21:26.134Z,24.92
2023-01-07T12:22:39.585Z,23.52
2023-01-07T12:24:02.622Z,30.95
2023-01-07T12:25:22.588Z,35.72
2023-01-07T12:26:37.932Z,25.05
2023-01-07T12:27:58.044Z,24.05
2023-01-07T12:29:16.644Z,27.33
2023-01-07T12:30:30.225Z,26.00
2023-01-07T12:31:48.410Z,21.65
2023-01-07T12:33:08.617Z,24.80
2023-01-07T12:34:57.934Z,25.60
2023-01-07T12:36:52.422Z,19.70
2023-01-07T12:38:00.038Z,21.70
2023-01-07T12:39:06.463Z,29.83
2023-01-07T12:40:13.640Z,21.67
2023-01-07T12:41:20.819Z,23.30
2023-01-07T12:42:34.929Z,24.35
2023-01-07T12:43:44.788Z,26.42
2023-01-07T12:44:51.401Z,21.08
2023-01-07T12:45:57.723Z,21.05
2023-01-07T12:47:30.931Z,25.33
2023-01-07T12:48:41.001Z,22.77
2023-01-07T12:49:48.038Z,22.40
2023-01-07T12:50:54.720Z,26.67
2023-01-07T12:52:12.921Z,26.70
2023-01-07T12:53:23.293Z,25.10
2023-01-07T12:55:09.281Z,19.77
2023-01-07T12:56:28.998Z,21.60
2023-01-07T12:57:39.081Z,27.73
2023-01-07T12:58:49.540Z,26.38
2023-01-07T13:00:15.547Z,26.55
2023-01-07T13:01:28.536Z,22.13
2023-01-07T13:02:58.716Z,22.13
2023-01-07T13:04:06.339Z,24.98
2023-01-07T13:05:20.130Z,21.02
2023-01-07T13:06:46.870Z,23.60
2023-01-07T13:08:06.041Z,27.33
2023-01-07T13:09:21.671Z,28.33
2023-01-07T13:10:54.284Z,30.02
2023-01-07T13:12:45.391Z,30.88
2023-01-07T13:13:54.821Z,20.65
2023-01-07T13:15:01.259Z,23.90
2023-01-07T13:16:04.256Z,22.92
2023-01-07T13:17:29.383Z,26.33
2023-01-07T13:18:31.676Z,21.98
2023-01-07T13:19:33.668Z,26.98
2023-01-07T13:20:51.707Z,28.15
2023-01-07T13:21:53.987Z,33.97
2023-01-07T13:22:57.040Z,29.88
2023-01-07T13:24:18.965Z,25.30
2023-01-07T13:25:37.572Z,31.52
2023-01-07T13:26:47.870Z,28.13
2023-01-07T13:28:01.203Z,14.73
2023-01-07T13:29:17.030Z,24.60
2023-01-07T13:30:40.683Z,24.52
2023-01-07T13:32:03.009Z,24.77
2023-01-07T13:33:07.680Z,27.63
2023-01-07T13:34:40.495Z,23.25
2023-01-07T13:36:01.715Z,22.88
2023-01-07T13:37:09.781Z,20.80
2023-01-07T13:38:39.429Z,24.80
2023-01-07T13:39:53.386Z,29.58
2023-01-07T13:41:12.589Z,21.17
2023-01-07T13:42:17.559Z,17.48
2023-01-07T13:43:43.644Z,20.38
2023-01-07T13:45:01.895Z,15.95
2023-01-07T13:46:26.396Z,16.05
2023-01-07T13:47:41.839Z,19.05
2023-01-07T13:48:51.835Z,19.55
2023-01-07T13:49:59.031Z,18.67
2023-01-07T13:51:03.728Z,18.88
2023-01-07T13:52:18.190Z,17.25
2023-01-07T13:53:20.080Z,24.83
2023-01-07T13:54:49.498Z,16.40
2023-01-07T13:55:52.508Z,18.45
2023-01-07T13:56:54.353Z,17.17
2023-01-07T13:57:56.344Z,18.13
2023-01-07T13:59:00.566Z,21.15
2023-01-07T14:00:07.118Z,20.77
2023-01-07T14:01:26.599Z,23.60
2023-01-07T14:02:29.992Z,19.00
2023-01-07T14:03:54.797Z,24.15
2023-01-07T14:05:06.990Z,28.52
2023-01-07T14:06:20.918Z,19.15
2023-01-07T14:07:23.917Z,18.05
2023-01-07T14:08:28.524Z,19.40
2023-01-07T14:09:36.381Z,22.45
2023-01-07T14:10:39.423Z,18.77
2023-01-07T14:12:05.107Z,21.38
2023-01-07T14:13:33.828Z,21.80
2023-01-07T14:14:55.978Z,32.80
2023-01-07T14:16:21.216Z,57.65
2023-01-07T14:18:01.688Z,132.60
2023-01-07T14:19:29.978Z,47.10
2023-01-07T14:20:53.756Z,47.80
2023-01-07T14:22:07.830Z,69.57
2023-01-07T14:23:39.247Z,66.13
2023-01-07T14:24:43.870Z,60.15
2023-01-07T14:26:02.317Z,46.90
2023-01-07T14:27:25.392Z,48.88
2023-01-07T14:29:01.050Z,39.83
2023-01-07T14:30:20.644Z,36.92
2023-01-07T14:31:25.450Z,38.42
2023-01-07T14:32:37.018Z,34.90